sensor_id;sensor_type;location;lat;lon;timestamp;P1;durP1;ratioP1;P2;durP2;ratioP2
28353;SDS011;15603;50.878;8.036;2023-06-19T00:01:45;10.35;;;5.35;;
28353;SDS011;15603;50.878;8.036;2023-06-19T00:04:12;9.38;;;5.10;;
28353;SDS011;15603;50.878;8.036;2023-06-19T00:06:39;6.95;;;4.97;;
28353;SDS011;15603;50.878;8.036;2023-06-19T00:09:06;7.65;;;5.20;;
28353;SDS011;15603;50.878;8.036;2023-06-19T00:11:34;10.15;;;5.05;;
28353;SDS011;15603;50.878;8.036;2023-06-19T00:14:01;8.88;;;4.82;;
28353;SDS011;15603;50.878;8.036;2023-06-19T00:16:28;12.95;;;4.82;;
28353;SDS011;15603;50.878;8.036;2023-06-19T00:18:55;9.98;;;5.03;;
28353;SDS011;15603;50.878;8.036;2023-06-19T00:21:23;7.43;;;5.32;;
28353;SDS011;15603;50.878;8.036;2023-06-19T00:23:53;13.48;;;5.18;;
28353;SDS011;15603;50.878;8.036;2023-06-19T00:26:20;12.95;;;5.07;;
28353;SDS011;15603;50.878;8.036;2023-06-19T00:28:52;7.90;;;5.53;;
28353;SDS011;15603;50.878;8.036;2023-06-19T00:31:19;9.48;;;5.53;;
28353;SDS011;15603;50.878;8.036;2023-06-19T00:33:49;8.07;;;4.88;;
28353;SDS011;15603;50.878;8.036;2023-06-19T00:36:17;8.27;;;5.97;;
28353;SDS011;15603;50.878;8.036;2023-06-19T00:38:48;7.45;;;5.00;;
28353;SDS011;15603;50.878;8.036;2023-06-19T00:41:15;6.28;;;5.05;;
28353;SDS011;15603;50.878;8.036;2023-06-19T00:43:43;7.55;;;4.78;;
28353;SDS011;15603;50.878;8.036;2023-06-19T00:46:11;8.43;;;5.45;;
28353;SDS011;15603;50.878;8.036;2023-06-19T00:48:39;7.90;;;4.93;;
28353;SDS011;15603;50.878;8.036;2023-06-19T00:51:07;9.82;;;5.20;;
28353;SDS011;15603;50.878;8.036;2023-06-19T00:53:34;8.32;;;4.95;;
28353;SDS011;15603;50.878;8.036;2023-06-19T00:56:02;7.95;;;5.47;;
28353;SDS011;15603;50.878;8.036;2023-06-19T00:58:30;7.15;;;4.88;;
28353;SDS011;15603;50.878;8.036;2023-06-19T01:00:57;7.20;;;4.70;;
28353;SDS011;15603;50.878;8.036;2023-06-19T01:03:36;7.07;;;4.78;;
28353;SDS011;15603;50.878;8.036;2023-06-19T01:06:05;7.68;;;5.00;;
28353;SDS011;15603;50.878;8.036;2023-06-19T01:11:10;6.72;;;5.20;;
28353;SDS011;15603;50.878;8.036;2023-06-19T01:14:01;8.60;;;5.50;;
28353;SDS011;15603;50.878;8.036;2023-06-19T01:16:35;9.82;;;5.72;;
28353;SDS011;15603;50.878;8.036;2023-06-19T01:19:03;7.43;;;5.07;;
28353;SDS011;15603;50.878;8.036;2023-06-19T01:21:32;11.38;;;5.35;;
28353;SDS011;15603;50.878;8.036;2023-06-19T01:24:00;7.72;;;5.38;;
28353;SDS011;15603;50.878;8.036;2023-06-19T01:26:27;6.25;;;4.95;;
28353;SDS011;15603;50.878;8.036;2023-06-19T01:28:56;8.55;;;5.03;;
28353;SDS011;15603;50.878;8.036;2023-06-19T01:31:25;8.27;;;5.63;;
28353;SDS011;15603;50.878;8.036;2023-06-19T01:33:58;8.90;;;5.40;;
28353;SDS011;15603;50.878;8.036;2023-06-19T01:36:27;9.27;;;5.68;;
28353;SDS011;15603;50.878;8.036;2023-06-19T01:38:59;8.37;;;5.63;;
28353;SDS011;15603;50.878;8.036;2023-06-19T01:41:27;14.93;;;5.70;;
28353;SDS011;15603;50.878;8.036;2023-06-19T01:43:54;7.65;;;5.05;;
28353;SDS011;15603;50.878;8.036;2023-06-19T01:46:23;7.38;;;5.55;;
28353;SDS011;15603;50.878;8.036;2023-06-19T01:48:51;9.52;;;5.95;;
28353;SDS011;15603;50.878;8.036;2023-06-19T01:51:19;6.68;;;5.47;;
28353;SDS011;15603;50.878;8.036;2023-06-19T01:53:46;8.20;;;5.35;;
28353;SDS011;15603;50.878;8.036;2023-06-19T01:56:13;10.02;;;5.28;;
28353;SDS011;15603;50.878;8.036;2023-06-19T01:58:40;6.88;;;5.28;;
28353;SDS011;15603;50.878;8.036;2023-06-19T02:01:07;7.22;;;4.70;;
28353;SDS011;15603;50.878;8.036;2023-06-19T02:03:34;10.75;;;5.88;;
28353;SDS011;15603;50.878;8.036;2023-06-19T02:06:01;13.18;;;6.07;;
28353;SDS011;15603;50.878;8.036;2023-06-19T02:08:29;7.57;;;5.43;;
28353;SDS011;15603;50.878;8.036;2023-06-19T02:10:56;5.95;;;4.95;;
28353;SDS011;15603;50.878;8.036;2023-06-19T02:13:23;14.02;;;5.93;;
28353;SDS011;15603;50.878;8.036;2023-06-19T02:15:50;8.10;;;5.82;;
28353;SDS011;15603;50.878;8.036;2023-06-19T02:18:18;8.15;;;6.05;;
28353;SDS011;15603;50.878;8.036;2023-06-19T02:20:45;10.07;;;6.53;;
28353;SDS011;15603;50.878;8.036;2023-06-19T02:23:12;8.93;;;6.20;;
28353;SDS011;15603;50.878;8.036;2023-06-19T02:25:39;8.52;;;5.63;;
28353;SDS011;15603;50.878;8.036;2023-06-19T02:28:08;7.00;;;5.00;;
28353;SDS011;15603;50.878;8.036;2023-06-19T02:30:35;8.73;;;6.00;;
28353;SDS011;15603;50.878;8.036;2023-06-19T02:33:03;7.47;;;5.65;;
28353;SDS011;15603;50.878;8.036;2023-06-19T02:35:30;9.77;;;5.68;;
28353;SDS011;15603;50.878;8.036;2023-06-19T02:37:57;12.27;;;5.65;;
28353;SDS011;15603;50.878;8.036;2023-06-19T02:40:24;9.07;;;6.10;;
28353;SDS011;15603;50.878;8.036;2023-06-19T02:42:53;7.20;;;5.63;;
28353;SDS011;15603;50.878;8.036;2023-06-19T02:45:20;9.80;;;5.68;;
28353;SDS011;15603;50.878;8.036;2023-06-19T02:47:47;8.50;;;5.50;;
28353;SDS011;15603;50.878;8.036;2023-06-19T02:50:14;9.52;;;5.55;;
28353;SDS011;15603;50.878;8.036;2023-06-19T02:52:41;11.50;;;6.22;;
28353;SDS011;15603;50.878;8.036;2023-06-19T02:55:08;10.10;;;5.10;;
28353;SDS011;15603;50.878;8.036;2023-06-19T02:57:36;11.13;;;6.28;;
28353;SDS011;15603;50.878;8.036;2023-06-19T03:00:03;10.85;;;5.47;;
28353;SDS011;15603;50.878;8.036;2023-06-19T03:02:33;13.57;;;5.80;;
28353;SDS011;15603;50.878;8.036;2023-06-19T03:05:00;7.13;;;4.97;;
28353;SDS011;15603;50.878;8.036;2023-06-19T03:07:27;9.05;;;5.70;;
28353;SDS011;15603;50.878;8.036;2023-06-19T03:09:55;8.40;;;5.18;;
28353;SDS011;15603;50.878;8.036;2023-06-19T03:12:22;10.18;;;5.43;;
28353;SDS011;15603;50.878;8.036;2023-06-19T03:14:49;8.10;;;5.20;;
28353;SDS011;15603;50.878;8.036;2023-06-19T03:17:16;7.05;;;5.25;;
28353;SDS011;15603;50.878;8.036;2023-06-19T03:19:44;10.65;;;5.82;;
28353;SDS011;15603;50.878;8.036;2023-06-19T03:22:11;11.57;;;4.72;;
28353;SDS011;15603;50.878;8.036;2023-06-19T03:24:38;13.73;;;5.88;;
28353;SDS011;15603;50.878;8.036;2023-06-19T03:27:15;10.63;;;5.65;;
28353;SDS011;15603;50.878;8.036;2023-06-19T03:29:43;9.00;;;5.35;;
28353;SDS011;15603;50.878;8.036;2023-06-19T03:32:14;9.32;;;5.28;;
28353;SDS011;15603;50.878;8.036;2023-06-19T03:34:41;11.35;;;5.35;;
28353;SDS011;15603;50.878;8.036;2023-06-19T03:37:10;16.23;;;5.60;;
28353;SDS011;15603;50.878;8.036;2023-06-19T03:39:37;13.07;;;6.40;;
28353;SDS011;15603;50.878;8.036;2023-06-19T03:42:07;10.98;;;5.97;;
28353;SDS011;15603;50.878;8.036;2023-06-19T03:44:35;7.95;;;5.38;;
28353;SDS011;15603;50.878;8.036;2023-06-19T03:47:02;12.98;;;5.35;;
28353;SDS011;15603;50.878;8.036;2023-06-19T03:49:29;8.95;;;5.68;;
28353;SDS011;15603;50.878;8.036;2023-06-19T03:51:56;9.05;;;6.07;;
28353;SDS011;15603;50.878;8.036;2023-06-19T03:54:24;16.42;;;6.13;;
28353;SDS011;15603;50.878;8.036;2023-06-19T03:56:52;9.77;;;5.45;;
28353;SDS011;15603;50.878;8.036;2023-06-19T03:59:20;12.43;;;5.10;;
28353;SDS011;15603;50.878;8.036;2023-06-19T04:01:47;9.68;;;6.60;;
28353;SDS011;15603;50.878;8.036;2023-06-19T04:04:15;16.92;;;6.38;;
28353;SDS011;15603;50.878;8.036;2023-06-19T04:06:43;13.65;;;6.90;;
28353;SDS011;15603;50.878;8.036;2023-06-19T04:09:10;8.77;;;5.10;;
28353;SDS011;15603;50.878;8.036;2023-06-19T04:11:37;10.13;;;5.95;;
28353;SDS011;15603;50.878;8.036;2023-06-19T04:14:04;11.93;;;6.15;;
28353;SDS011;15603;50.878;8.036;2023-06-19T04:16:31;12.05;;;5.90;;
28353;SDS011;15603;50.878;8.036;2023-06-19T04:18:58;8.40;;;5.65;;
28353;SDS011;15603;50.878;8.036;2023-06-19T04:21:25;10.52;;;5.55;;
28353;SDS011;15603;50.878;8.036;2023-06-19T04:23:53;8.55;;;5.70;;
28353;SDS011;15603;50.878;8.036;2023-06-19T04:26:20;8.50;;;5.57;;
28353;SDS011;15603;50.878;8.036;2023-06-19T04:28:48;9.98;;;6.00;;
28353;SDS011;15603;50.878;8.036;2023-06-19T04:31:15;8.65;;;5.90;;
28353;SDS011;15603;50.878;8.036;2023-06-19T04:33:45;19.52;;;6.13;;
28353;SDS011;15603;50.878;8.036;2023-06-19T04:36:12;26.02;;;6.70;;
28353;SDS011;15603;50.878;8.036;2023-06-19T04:38:40;7.75;;;5.65;;
28353;SDS011;15603;50.878;8.036;2023-06-19T04:41:07;10.32;;;4.95;;
28353;SDS011;15603;50.878;8.036;2023-06-19T04:43:34;10.90;;;5.57;;
28353;SDS011;15603;50.878;8.036;2023-06-19T04:46:01;10.65;;;5.32;;
28353;SDS011;15603;50.878;8.036;2023-06-19T04:48:30;17.30;;;5.50;;
28353;SDS011;15603;50.878;8.036;2023-06-19T04:50:58;7.72;;;4.63;;
28353;SDS011;15603;50.878;8.036;2023-06-19T04:53:27;9.95;;;4.57;;
28353;SDS011;15603;50.878;8.036;2023-06-19T04:55:54;8.63;;;4.00;;
28353;SDS011;15603;50.878;8.036;2023-06-19T04:58:22;6.55;;;3.80;;
28353;SDS011;15603;50.878;8.036;2023-06-19T05:00:49;5.85;;;3.65;;
28353;SDS011;15603;50.878;8.036;2023-06-19T05:03:17;7.43;;;4.07;;
28353;SDS011;15603;50.878;8.036;2023-06-19T05:05:45;5.93;;;4.22;;
28353;SDS011;15603;50.878;8.036;2023-06-19T05:08:12;4.95;;;3.25;;
28353;SDS011;15603;50.878;8.036;2023-06-19T05:10:39;7.38;;;4.13;;
28353;SDS011;15603;50.878;8.036;2023-06-19T05:13:07;5.80;;;3.60;;
28353;SDS011;15603;50.878;8.036;2023-06-19T05:15:34;8.30;;;3.45;;
28353;SDS011;15603;50.878;8.036;2023-06-19T05:18:01;5.35;;;3.47;;
28353;SDS011;15603;50.878;8.036;2023-06-19T05:20:28;4.55;;;3.00;;
28353;SDS011;15603;50.878;8.036;2023-06-19T05:22:55;5.28;;;3.13;;
28353;SDS011;15603;50.878;8.036;2023-06-19T05:25:22;5.65;;;3.00;;
28353;SDS011;15603;50.878;8.036;2023-06-19T05:27:49;4.07;;;3.03;;
28353;SDS011;15603;50.878;8.036;2023-06-19T05:30:16;13.07;;;3.60;;
28353;SDS011;15603;50.878;8.036;2023-06-19T05:32:43;5.53;;;3.35;;
28353;SDS011;15603;50.878;8.036;2023-06-19T05:35:10;10.25;;;3.20;;
28353;SDS011;15603;50.878;8.036;2023-06-19T05:37:42;7.03;;;2.83;;
28353;SDS011;15603;50.878;8.036;2023-06-19T05:40:10;15.00;;;3.22;;
28353;SDS011;15603;50.878;8.036;2023-06-19T05:42:37;10.88;;;3.30;;
28353;SDS011;15603;50.878;8.036;2023-06-19T05:45:06;3.90;;;2.70;;
28353;SDS011;15603;50.878;8.036;2023-06-19T05:47:34;7.32;;;3.33;;
28353;SDS011;15603;50.878;8.036;2023-06-19T05:50:01;6.57;;;3.40;;
28353;SDS011;15603;50.878;8.036;2023-06-19T05:52:28;5.75;;;3.25;;
28353;SDS011;15603;50.878;8.036;2023-06-19T05:54:55;6.93;;;3.17;;
28353;SDS011;15603;50.878;8.036;2023-06-19T05:57:24;4.93;;;3.13;;
28353;SDS011;15603;50.878;8.036;2023-06-19T05:59:51;18.77;;;3.47;;
28353;SDS011;15603;50.878;8.036;2023-06-19T06:02:19;6.13;;;3.08;;
28353;SDS011;15603;50.878;8.036;2023-06-19T06:04:47;4.53;;;3.33;;
28353;SDS011;15603;50.878;8.036;2023-06-19T06:07:14;16.35;;;4.00;;
28353;SDS011;15603;50.878;8.036;2023-06-19T06:09:41;6.78;;;3.78;;
28353;SDS011;15603;50.878;8.036;2023-06-19T06:12:08;5.78;;;3.65;;
28353;SDS011;15603;50.878;8.036;2023-06-19T06:14:35;10.07;;;3.83;;
28353;SDS011;15603;50.878;8.036;2023-06-19T06:17:02;7.00;;;3.88;;
28353;SDS011;15603;50.878;8.036;2023-06-19T06:19:32;9.88;;;4.00;;
28353;SDS011;15603;50.878;8.036;2023-06-19T06:21:59;12.50;;;3.55;;
28353;SDS011;15603;50.878;8.036;2023-06-19T06:24:26;6.53;;;3.97;;
28353;SDS011;15603;50.878;8.036;2023-06-19T06:26:54;7.57;;;3.63;;
28353;SDS011;15603;50.878;8.036;2023-06-19T06:29:21;4.88;;;3.65;;
28353;SDS011;15603;50.878;8.036;2023-06-19T06:31:48;4.28;;;3.75;;
28353;SDS011;15603;50.878;8.036;2023-06-19T06:34:15;6.20;;;4.07;;
28353;SDS011;15603;50.878;8.036;2023-06-19T06:36:42;4.80;;;3.92;;
28353;SDS011;15603;50.878;8.036;2023-06-19T06:39:27;8.68;;;3.97;;
28353;SDS011;15603;50.878;8.036;2023-06-19T06:41:54;8.38;;;4.25;;
28353;SDS011;15603;50.878;8.036;2023-06-19T06:44:22;7.75;;;4.00;;
28353;SDS011;15603;50.878;8.036;2023-06-19T06:46:49;9.10;;;4.18;;
28353;SDS011;15603;50.878;8.036;2023-06-19T06:49:18;8.02;;;3.75;;
28353;SDS011;15603;50.878;8.036;2023-06-19T06:51:46;7.88;;;4.30;;
28353;SDS011;15603;50.878;8.036;2023-06-19T06:54:14;7.07;;;4.15;;
28353;SDS011;15603;50.878;8.036;2023-06-19T06:56:41;5.65;;;3.97;;
28353;SDS011;15603;50.878;8.036;2023-06-19T06:59:08;9.30;;;3.92;;
28353;SDS011;15603;50.878;8.036;2023-06-19T07:01:35;7.40;;;3.97;;
28353;SDS011;15603;50.878;8.036;2023-06-19T07:04:03;6.70;;;4.05;;
28353;SDS011;15603;50.878;8.036;2023-06-19T07:06:30;6.75;;;3.65;;
28353;SDS011;15603;50.878;8.036;2023-06-19T07:08:57;7.53;;;4.07;;
28353;SDS011;15603;50.878;8.036;2023-06-19T07:11:24;5.75;;;4.15;;
28353;SDS011;15603;50.878;8.036;2023-06-19T07:13:51;7.70;;;3.83;;
28353;SDS011;15603;50.878;8.036;2023-06-19T07:16:18;7.35;;;3.65;;
28353;SDS011;15603;50.878;8.036;2023-06-19T07:18:45;5.85;;;3.95;;
28353;SDS011;15603;50.878;8.036;2023-06-19T07:21:13;4.75;;;3.15;;
28353;SDS011;15603;50.878;8.036;2023-06-19T07:23:41;5.47;;;3.13;;
28353;SDS011;15603;50.878;8.036;2023-06-19T07:26:09;7.75;;;3.13;;
28353;SDS011;15603;50.878;8.036;2023-06-19T07:28:36;5.55;;;3.00;;
28353;SDS011;15603;50.878;8.036;2023-06-19T07:31:04;4.63;;;3.10;;
28353;SDS011;15603;50.878;8.036;2023-06-19T07:33:31;4.22;;;2.90;;
28353;SDS011;15603;50.878;8.036;2023-06-19T07:35:58;3.90;;;2.60;;
28353;SDS011;15603;50.878;8.036;2023-06-19T07:38:25;4.32;;;2.80;;
28353;SDS011;15603;50.878;8.036;2023-06-19T07:40:52;3.05;;;2.40;;
28353;SDS011;15603;50.878;8.036;2023-06-19T07:43:19;5.88;;;2.80;;
28353;SDS011;15603;50.878;8.036;2023-06-19T07:45:49;4.47;;;3.25;;
28353;SDS011;15603;50.878;8.036;2023-06-19T07:48:16;6.00;;;2.30;;
28353;SDS011;15603;50.878;8.036;2023-06-19T07:50:43;4.78;;;2.70;;
28353;SDS011;15603;50.878;8.036;2023-06-19T07:53:11;3.55;;;2.78;;
28353;SDS011;15603;50.878;8.036;2023-06-19T07:55:38;3.80;;;2.58;;
28353;SDS011;15603;50.878;8.036;2023-06-19T07:58:05;7.28;;;3.10;;
28353;SDS011;15603;50.878;8.036;2023-06-19T08:00:32;7.40;;;2.85;;
28353;SDS011;15603;50.878;8.036;2023-06-19T08:02:59;4.88;;;3.25;;
28353;SDS011;15603;50.878;8.036;2023-06-19T08:05:26;9.10;;;2.72;;
28353;SDS011;15603;50.878;8.036;2023-06-19T08:07:53;3.65;;;2.78;;
28353;SDS011;15603;50.878;8.036;2023-06-19T08:10:20;3.95;;;2.40;;
28353;SDS011;15603;50.878;8.036;2023-06-19T08:12:47;8.40;;;2.85;;
28353;SDS011;15603;50.878;8.036;2023-06-19T08:15:16;3.75;;;2.40;;
28353;SDS011;15603;50.878;8.036;2023-06-19T08:17:43;5.68;;;3.33;;
28353;SDS011;15603;50.878;8.036;2023-06-19T08:20:10;4.75;;;2.70;;
28353;SDS011;15603;50.878;8.036;2023-06-19T08:22:38;4.90;;;3.47;;
28353;SDS011;15603;50.878;8.036;2023-06-19T08:25:05;4.15;;;3.25;;
28353;SDS011;15603;50.878;8.036;2023-06-19T08:27:32;4.28;;;2.80;;
28353;SDS011;15603;50.878;8.036;2023-06-19T08:29:59;4.65;;;2.80;;
28353;SDS011;15603;50.878;8.036;2023-06-19T08:32:27;3.20;;;2.70;;
28353;SDS011;15603;50.878;8.036;2023-06-19T08:34:54;4.43;;;3.03;;
28353;SDS011;15603;50.878;8.036;2023-06-19T08:37:21;3.50;;;2.67;;
28353;SDS011;15603;50.878;8.036;2023-06-19T08:39:48;5.65;;;3.08;;
28353;SDS011;15603;50.878;8.036;2023-06-19T08:42:15;5.10;;;3.03;;
28353;SDS011;15603;50.878;8.036;2023-06-19T08:44:42;4.40;;;3.17;;
28353;SDS011;15603;50.878;8.036;2023-06-19T08:47:09;6.40;;;3.03;;
28353;SDS011;15603;50.878;8.036;2023-06-19T08:49:38;7.18;;;2.92;;
28353;SDS011;15603;50.878;8.036;2023-06-19T08:52:06;6.72;;;3.50;;
28353;SDS011;15603;50.878;8.036;2023-06-19T08:54:34;5.78;;;3.22;;
28353;SDS011;15603;50.878;8.036;2023-06-19T08:57:11;3.42;;;2.35;;
28353;SDS011;15603;50.878;8.036;2023-06-19T08:59:39;6.43;;;3.03;;
28353;SDS011;15603;50.878;8.036;2023-06-19T09:02:07;3.65;;;2.83;;
28353;SDS011;15603;50.878;8.036;2023-06-19T09:04:35;4.45;;;2.58;;
28353;SDS011;15603;50.878;8.036;2023-06-19T09:07:02;3.17;;;2.53;;
28353;SDS011;15603;50.878;8.036;2023-06-19T09:09:45;6.32;;;3.10;;
28353;SDS011;15603;50.878;8.036;2023-06-19T09:12:15;3.17;;;2.80;;
28353;SDS011;15603;50.878;8.036;2023-06-19T09:14:51;3.95;;;3.00;;
28353;SDS011;15603;50.878;8.036;2023-06-19T09:17:19;5.95;;;2.47;;
28353;SDS011;15603;50.878;8.036;2023-06-19T09:19:50;4.53;;;2.72;;
28353;SDS011;15603;50.878;8.036;2023-06-19T09:22:20;4.18;;;2.30;;
28353;SDS011;15603;50.878;8.036;2023-06-19T09:24:49;4.45;;;2.75;;
28353;SDS011;15603;50.878;8.036;2023-06-19T09:27:17;3.13;;;2.40;;
28353;SDS011;15603;50.878;8.036;2023-06-19T09:29:49;4.88;;;2.63;;
28353;SDS011;15603;50.878;8.036;2023-06-19T09:34:47;4.55;;;3.15;;
28353;SDS011;15603;50.878;8.036;2023-06-19T09:37:30;8.15;;;2.80;;
28353;SDS011;15603;50.878;8.036;2023-06-19T09:40:04;4.85;;;3.22;;
28353;SDS011;15603;50.878;8.036;2023-06-19T09:42:39;8.05;;;3.50;;
28353;SDS011;15603;50.878;8.036;2023-06-19T09:45:13;4.13;;;2.90;;
28353;SDS011;15603;50.878;8.036;2023-06-19T09:47:46;8.57;;;3.67;;
28353;SDS011;15603;50.878;8.036;2023-06-19T09:50:16;5.10;;;2.72;;
28353;SDS011;15603;50.878;8.036;2023-06-19T09:52:47;5.85;;;2.63;;
28353;SDS011;15603;50.878;8.036;2023-06-19T09:55:17;5.07;;;3.60;;
28353;SDS011;15603;50.878;8.036;2023-06-19T09:57:45;3.60;;;2.80;;
28353;SDS011;15603;50.878;8.036;2023-06-19T10:00:15;3.47;;;2.90;;
28353;SDS011;15603;50.878;8.036;2023-06-19T10:02:48;4.03;;;2.80;;
28353;SDS011;15603;50.878;8.036;2023-06-19T10:05:16;4.97;;;2.92;;
28353;SDS011;15603;50.878;8.036;2023-06-19T10:07:45;5.97;;;2.80;;
28353;SDS011;15603;50.878;8.036;2023-06-19T10:10:24;7.28;;;2.45;;
28353;SDS011;15603;50.878;8.036;2023-06-19T10:12:53;2.83;;;2.40;;
28353;SDS011;15603;50.878;8.036;2023-06-19T10:15:26;3.97;;;2.67;;
28353;SDS011;15603;50.878;8.036;2023-06-19T10:18:01;4.15;;;2.40;;
28353;SDS011;15603;50.878;8.036;2023-06-19T10:20:33;3.85;;;2.70;;
28353;SDS011;15603;50.878;8.036;2023-06-19T10:23:14;3.05;;;2.45;;
28353;SDS011;15603;50.878;8.036;2023-06-19T10:25:46;4.65;;;2.78;;
28353;SDS011;15603;50.878;8.036;2023-06-19T10:30:53;5.05;;;2.70;;
28353;SDS011;15603;50.878;8.036;2023-06-19T10:33:32;3.17;;;2.25;;
28353;SDS011;15603;50.878;8.036;2023-06-19T10:36:01;4.00;;;2.72;;
28353;SDS011;15603;50.878;8.036;2023-06-19T10:38:41;2.42;;;2.17;;
28353;SDS011;15603;50.878;8.036;2023-06-19T10:41:15;3.35;;;2.40;;
28353;SDS011;15603;50.878;8.036;2023-06-19T10:43:52;3.58;;;2.65;;
28353;SDS011;15603;50.878;8.036;2023-06-19T10:46:24;5.10;;;2.33;;
28353;SDS011;15603;50.878;8.036;2023-06-19T10:48:56;4.47;;;2.40;;
28353;SDS011;15603;50.878;8.036;2023-06-19T10:51:28;3.70;;;2.30;;
28353;SDS011;15603;50.878;8.036;2023-06-19T10:53:55;4.90;;;2.65;;
28353;SDS011;15603;50.878;8.036;2023-06-19T10:56:23;11.95;;;2.47;;
28353;SDS011;15603;50.878;8.036;2023-06-19T10:59:01;2.92;;;2.38;;
28353;SDS011;15603;50.878;8.036;2023-06-19T11:01:36;6.00;;;2.90;;
28353;SDS011;15603;50.878;8.036;2023-06-19T11:04:06;5.60;;;3.63;;
28353;SDS011;15603;50.878;8.036;2023-06-19T11:06:35;4.90;;;2.53;;
28353;SDS011;15603;50.878;8.036;2023-06-19T11:09:04;3.42;;;2.35;;
28353;SDS011;15603;50.878;8.036;2023-06-19T11:11:40;5.40;;;2.20;;
28353;SDS011;15603;50.878;8.036;2023-06-19T11:14:09;4.20;;;2.35;;
28353;SDS011;15603;50.878;8.036;2023-06-19T11:16:37;8.05;;;2.22;;
28353;SDS011;15603;50.878;8.036;2023-06-19T11:19:07;3.63;;;2.25;;
28353;SDS011;15603;50.878;8.036;2023-06-19T11:21:36;4.15;;;1.90;;
28353;SDS011;15603;50.878;8.036;2023-06-19T11:24:05;9.27;;;2.13;;
28353;SDS011;15603;50.878;8.036;2023-06-19T11:26:39;2.78;;;2.22;;
28353;SDS011;15603;50.878;8.036;2023-06-19T11:29:20;5.55;;;2.60;;
28353;SDS011;15603;50.878;8.036;2023-06-19T11:31:53;4.07;;;2.20;;
28353;SDS011;15603;50.878;8.036;2023-06-19T11:34:31;3.55;;;1.85;;
28353;SDS011;15603;50.878;8.036;2023-06-19T11:39:44;2.97;;;2.00;;
28353;SDS011;15603;50.878;8.036;2023-06-19T11:42:13;3.42;;;2.20;;
28353;SDS011;15603;50.878;8.036;2023-06-19T11:47:21;2.72;;;1.95;;
28353;SDS011;15603;50.878;8.036;2023-06-19T11:49:50;4.30;;;2.55;;
28353;SDS011;15603;50.878;8.036;2023-06-19T11:52:17;3.67;;;2.42;;
28353;SDS011;15603;50.878;8.036;2023-06-19T11:54:46;3.20;;;1.90;;
28353;SDS011;15603;50.878;8.036;2023-06-19T11:57:13;7.05;;;2.50;;
28353;SDS011;15603;50.878;8.036;2023-06-19T11:59:40;2.38;;;1.95;;
28353;SDS011;15603;50.878;8.036;2023-06-19T12:02:08;3.00;;;2.42;;
28353;SDS011;15603;50.878;8.036;2023-06-19T12:04:36;6.90;;;2.08;;
28353;SDS011;15603;50.878;8.036;2023-06-19T12:07:03;2.92;;;1.83;;
28353;SDS011;15603;50.878;8.036;2023-06-19T12:09:31;3.90;;;1.95;;
28353;SDS011;15603;50.878;8.036;2023-06-19T12:11:58;2.50;;;1.90;;
28353;SDS011;15603;50.878;8.036;2023-06-19T12:14:26;3.65;;;2.17;;
28353;SDS011;15603;50.878;8.036;2023-06-19T12:16:53;7.88;;;2.10;;
28353;SDS011;15603;50.878;8.036;2023-06-19T12:19:22;4.00;;;2.13;;
28353;SDS011;15603;50.878;8.036;2023-06-19T12:21:49;9.93;;;2.53;;
28353;SDS011;15603;50.878;8.036;2023-06-19T12:24:16;3.05;;;2.03;;
28353;SDS011;15603;50.878;8.036;2023-06-19T12:26:43;2.83;;;1.80;;
28353;SDS011;15603;50.878;8.036;2023-06-19T12:29:11;3.38;;;2.15;;
28353;SDS011;15603;50.878;8.036;2023-06-19T12:31:38;3.15;;;1.95;;
28353;SDS011;15603;50.878;8.036;2023-06-19T12:34:05;2.78;;;1.70;;
28353;SDS011;15603;50.878;8.036;2023-06-19T12:36:53;9.52;;;1.58;;
28353;SDS011;15603;50.878;8.036;2023-06-19T12:39:20;2.40;;;1.55;;
28353;SDS011;15603;50.878;8.036;2023-06-19T12:41:48;4.25;;;1.75;;
28353;SDS011;15603;50.878;8.036;2023-06-19T12:44:15;5.15;;;2.22;;
28353;SDS011;15603;50.878;8.036;2023-06-19T12:46:42;3.45;;;1.70;;
28353;SDS011;15603;50.878;8.036;2023-06-19T12:49:09;2.35;;;1.75;;
28353;SDS011;15603;50.878;8.036;2023-06-19T12:51:36;2.72;;;1.55;;
28353;SDS011;15603;50.878;8.036;2023-06-19T12:54:03;5.53;;;1.65;;
28353;SDS011;15603;50.878;8.036;2023-06-19T12:56:31;2.50;;;1.48;;
28353;SDS011;15603;50.878;8.036;2023-06-19T12:58:58;2.38;;;1.65;;
28353;SDS011;15603;50.878;8.036;2023-06-19T13:01:25;5.22;;;1.33;;
28353;SDS011;15603;50.878;8.036;2023-06-19T13:03:52;1.45;;;1.30;;
28353;SDS011;15603;50.878;8.036;2023-06-19T13:06:19;2.75;;;1.48;;
28353;SDS011;15603;50.878;8.036;2023-06-19T13:08:46;1.50;;;1.38;;
28353;SDS011;15603;50.878;8.036;2023-06-19T13:11:13;8.02;;;1.55;;
28353;SDS011;15603;50.878;8.036;2023-06-19T13:13:41;7.68;;;1.40;;
28353;SDS011;15603;50.878;8.036;2023-06-19T13:16:08;1.60;;;1.30;;
28353;SDS011;15603;50.878;8.036;2023-06-19T13:18:39;4.40;;;1.40;;
28353;SDS011;15603;50.878;8.036;2023-06-19T13:21:06;2.65;;;1.42;;
28353;SDS011;15603;50.878;8.036;2023-06-19T13:23:34;2.85;;;1.48;;
28353;SDS011;15603;50.878;8.036;2023-06-19T13:26:01;6.38;;;1.30;;
28353;SDS011;15603;50.878;8.036;2023-06-19T13:28:28;3.80;;;1.60;;
28353;SDS011;15603;50.878;8.036;2023-06-19T13:30:55;2.88;;;1.30;;
28353;SDS011;15603;50.878;8.036;2023-06-19T13:33:22;1.85;;;1.30;;
28353;SDS011;15603;50.878;8.036;2023-06-19T13:35:50;2.22;;;1.38;;
28353;SDS011;15603;50.878;8.036;2023-06-19T13:38:24;5.32;;;1.30;;
28353;SDS011;15603;50.878;8.036;2023-06-19T13:40:51;1.38;;;1.20;;
28353;SDS011;15603;50.878;8.036;2023-06-19T13:43:19;3.47;;;1.20;;
28353;SDS011;15603;50.878;8.036;2023-06-19T13:45:46;2.13;;;1.60;;
28353;SDS011;15603;50.878;8.036;2023-06-19T13:48:14;2.08;;;1.50;;
28353;SDS011;15603;50.878;8.036;2023-06-19T13:50:42;4.07;;;1.45;;
28353;SDS011;15603;50.878;8.036;2023-06-19T13:53:09;2.20;;;1.42;;
28353;SDS011;15603;50.878;8.036;2023-06-19T13:55:36;2.65;;;1.50;;
28353;SDS011;15603;50.878;8.036;2023-06-19T13:58:03;3.25;;;1.63;;
28353;SDS011;15603;50.878;8.036;2023-06-19T14:00:30;2.25;;;1.52;;
28353;SDS011;15603;50.878;8.036;2023-06-19T14:02:58;3.33;;;1.50;;
28353;SDS011;15603;50.878;8.036;2023-06-19T14:05:25;4.85;;;1.52;;
28353;SDS011;15603;50.878;8.036;2023-06-19T14:07:53;2.67;;;1.90;;
28353;SDS011;15603;50.878;8.036;2023-06-19T14:10:21;3.38;;;1.48;;
28353;SDS011;15603;50.878;8.036;2023-06-19T14:12:48;1.70;;;1.30;;
28353;SDS011;15603;50.878;8.036;2023-06-19T14:15:15;2.97;;;1.73;;
28353;SDS011;15603;50.878;8.036;2023-06-19T14:17:43;6.22;;;2.45;;
28353;SDS011;15603;50.878;8.036;2023-06-19T14:20:10;3.20;;;1.50;;
28353;SDS011;15603;50.878;8.036;2023-06-19T14:22:38;3.80;;;1.30;;
28353;SDS011;15603;50.878;8.036;2023-06-19T14:25:05;6.05;;;1.67;;
28353;SDS011;15603;50.878;8.036;2023-06-19T14:27:32;2.40;;;1.30;;
28353;SDS011;15603;50.878;8.036;2023-06-19T14:30:00;2.33;;;1.52;;
28353;SDS011;15603;50.878;8.036;2023-06-19T14:32:27;3.50;;;1.50;;
28353;SDS011;15603;50.878;8.036;2023-06-19T14:34:55;3.92;;;1.58;;
28353;SDS011;15603;50.878;8.036;2023-06-19T14:37:22;1.60;;;1.30;;
28353;SDS011;15603;50.878;8.036;2023-06-19T14:39:49;2.63;;;1.60;;
28353;SDS011;15603;50.878;8.036;2023-06-19T14:42:16;2.42;;;1.70;;
28353;SDS011;15603;50.878;8.036;2023-06-19T14:44:43;2.42;;;1.45;;
28353;SDS011;15603;50.878;8.036;2023-06-19T14:47:10;3.60;;;1.92;;
28353;SDS011;15603;50.878;8.036;2023-06-19T14:49:37;1.67;;;1.30;;
28353;SDS011;15603;50.878;8.036;2023-06-19T14:52:05;2.60;;;1.40;;
28353;SDS011;15603;50.878;8.036;2023-06-19T14:54:33;7.95;;;1.65;;
28353;SDS011;15603;50.878;8.036;2023-06-19T14:57:00;3.65;;;1.85;;
28353;SDS011;15603;50.878;8.036;2023-06-19T14:59:27;6.53;;;2.35;;
28353;SDS011;15603;50.878;8.036;2023-06-19T15:01:54;2.95;;;1.30;;
28353;SDS011;15603;50.878;8.036;2023-06-19T15:04:21;6.80;;;1.63;;
28353;SDS011;15603;50.878;8.036;2023-06-19T15:06:49;2.13;;;1.45;;